sensor_id;sensor_type;location;lat;lon;timestamp;P1;P2;P0
76421;PMS5003;65254;52.354;13.614;2023-05-20T00:00:00;4;4;
76421;PMS5003;65254;52.354;13.614;2023-05-20T00:04:00;4;4;
76421;PMS5003;65254;52.354;13.614;2023-05-20T00:08:00;4;4;
76421;PMS5003;65254;52.354;13.614;2023-05-20T00:12:00;4;4;
76421;PMS5003;65254;52.354;13.614;2023-05-20T00:16:00;4;4;
76421;PMS5003;65254;52.354;13.614;2023-05-20T00:20:00;4;4;
76421;PMS5003;65254;52.354;13.614;2023-05-20T00:24:00;4;4;
76421;PMS5003;65254;52.354;13.614;2023-05-20T00:28:00;3;3;
76421;PMS5003;65254;52.354;13.614;2023-05-20T00:32:00;5;5;
76421;PMS5003;65254;52.354;13.614;2023-05-20T00:36:00;3;3;
76421;PMS5003;65254;52.354;13.614;2023-05-20T00:40:00;4;4;
76421;PMS5003;65254;52.354;13.614;2023-05-20T00:44:00;3;3;
76421;PMS5003;65254;52.354;13.614;2023-05-20T00:48:01;4;4;
76421;PMS5003;65254;52.354;13.614;2023-05-20T00:52:00;4;4;
76421;PMS5003;65254;52.354;13.614;2023-05-20T00:56:00;4;4;
76421;PMS5003;65254;52.354;13.614;2023-05-20T01:00:02;3;3;
76421;PMS5003;65254;52.354;13.614;2023-05-20T01:04:01;4;4;
76421;PMS5003;65254;52.354;13.614;2023-05-20T01:08:00;4;4;
76421;PMS5003;65254;52.354;13.614;2023-05-20T01:12:04;3;3;
76421;PMS5003;65254;52.354;13.614;2023-05-20T01:16:01;4;4;
76421;PMS5003;65254;52.354;13.614;2023-05-20T01:20:01;3;3;
76421;PMS5003;65254;52.354;13.614;2023-05-20T01:24:00;4;4;
76421;PMS5003;65254;52.354;13.614;2023-05-20T01:28:00;3;3;
76421;PMS5003;65254;52.354;13.614;2023-05-20T01:32:01;4;4;
76421;PMS5003;65254;52.354;13.614;2023-05-20T01:36:00;4;4;
76421;PMS5003;65254;52.354;13.614;2023-05-20T01:40:02;4;4;
76421;PMS5003;65254;52.354;13.614;2023-05-20T01:44:00;4;4;
76421;PMS5003;65254;52.354;13.614;2023-05-20T01:48:01;3;3;
76421;PMS5003;65254;52.354;13.614;2023-05-20T01:52:00;4;4;
76421;PMS5003;65254;52.354;13.614;2023-05-20T01:56:00;4;4;
76421;PMS5003;65254;52.354;13.614;2023-05-20T02:00:00;4;4;
76421;PMS5003;65254;52.354;13.614;2023-05-20T02:04:00;4;4;
76421;PMS5003;65254;52.354;13.614;2023-05-20T02:08:00;4;4;
76421;PMS5003;65254;52.354;13.614;2023-05-20T02:12:00;4;4;
76421;PMS5003;65254;52.354;13.614;2023-05-20T02:16:00;4;4;
76421;PMS5003;65254;52.354;13.614;2023-05-20T02:20:00;4;4;
76421;PMS5003;65254;52.354;13.614;2023-05-20T02:24:00;4;4;
76421;PMS5003;65254;52.354;13.614;2023-05-20T02:28:00;4;4;
76421;PMS5003;65254;52.354;13.614;2023-05-20T02:32:00;4;4;
76421;PMS5003;65254;52.354;13.614;2023-05-20T02:36:00;4;4;
76421;PMS5003;65254;52.354;13.614;2023-05-20T02:40:00;4;4;
76421;PMS5003;65254;52.354;13.614;2023-05-20T02:44:01;4;4;
76421;PMS5003;65254;52.354;13.614;2023-05-20T02:48:00;4;4;
76421;PMS5003;65254;52.354;13.614;2023-05-20T02:52:00;5;5;
76421;PMS5003;65254;52.354;13.614;2023-05-20T02:56:00;4;4;
76421;PMS5003;65254;52.354;13.614;2023-05-20T03:00:00;4;4;
76421;PMS5003;65254;52.354;13.614;2023-05-20T03:04:01;4;4;
76421;PMS5003;65254;52.354;13.614;2023-05-20T03:08:00;4;4;
76421;PMS5003;65254;52.354;13.614;2023-05-20T03:12:00;4;4;
76421;PMS5003;65254;52.354;13.614;2023-05-20T03:16:00;4;4;
76421;PMS5003;65254;52.354;13.614;2023-05-20T03:20:00;4;4;
76421;PMS5003;65254;52.354;13.614;2023-05-20T03:24:00;4;4;
76421;PMS5003;65254;52.354;13.614;2023-05-20T03:28:00;4;4;
76421;PMS5003;65254;52.354;13.614;2023-05-20T03:32:00;4;4;
76421;PMS5003;65254;52.354;13.614;2023-05-20T03:36:00;5;4;
76421;PMS5003;65254;52.354;13.614;2023-05-20T03:40:00;4;4;
76421;PMS5003;65254;52.354;13.614;2023-05-20T03:44:00;4;4;
76421;PMS5003;65254;52.354;13.614;2023-05-20T03:48:00;4;4;
76421;PMS5003;65254;52.354;13.614;2023-05-20T03:52:00;5;5;
76421;PMS5003;65254;52.354;13.614;2023-05-20T03:56:00;5;5;
76421;PMS5003;65254;52.354;13.614;2023-05-20T04:00:00;5;5;
76421;PMS5003;65254;52.354;13.614;2023-05-20T04:04:00;4;4;
76421;PMS5003;65254;52.354;13.614;2023-05-20T04:08:00;4;4;
76421;PMS5003;65254;52.354;13.614;2023-05-20T04:12:00;4;4;
76421;PMS5003;65254;52.354;13.614;2023-05-20T04:16:00;4;4;
76421;PMS5003;65254;52.354;13.614;2023-05-20T04:20:00;5;5;
76421;PMS5003;65254;52.354;13.614;2023-05-20T04:24:00;4;4;
76421;PMS5003;65254;52.354;13.614;2023-05-20T04:28:00;4;4;
76421;PMS5003;65254;52.354;13.614;2023-05-20T04:32:00;4;4;
76421;PMS5003;65254;52.354;13.614;2023-05-20T04:36:00;5;5;
76421;PMS5003;65254;52.354;13.614;2023-05-20T04:40:00;4;4;
76421;PMS5003;65254;52.354;13.614;2023-05-20T04:44:00;4;4;
76421;PMS5003;65254;52.354;13.614;2023-05-20T04:48:00;5;5;
76421;PMS5003;65254;52.354;13.614;2023-05-20T04:52:00;4;4;
76421;PMS5003;65254;52.354;13.614;2023-05-20T04:56:00;5;5;
76421;PMS5003;65254;52.354;13.614;2023-05-20T05:00:00;5;5;
76421;PMS5003;65254;52.354;13.614;2023-05-20T05:04:00;5;5;
76421;PMS5003;65254;52.354;13.614;2023-05-20T05:08:00;5;5;
76421;PMS5003;65254;52.354;13.614;2023-05-20T05:12:00;5;5;
76421;PMS5003;65254;52.354;13.614;2023-05-20T05:16:01;4;4;
76421;PMS5003;65254;52.354;13.614;2023-05-20T05:20:00;5;5;
76421;PMS5003;65254;52.354;13.614;2023-05-20T05:24:00;5;5;
76421;PMS5003;65254;52.354;13.614;2023-05-20T05:28:00;6;6;
76421;PMS5003;65254;52.354;13.614;2023-05-20T05:32:00;5;5;
76421;PMS5003;65254;52.354;13.614;2023-05-20T05:36:00;5;5;
76421;PMS5003;65254;52.354;13.614;2023-05-20T05:40:00;5;5;
76421;PMS5003;65254;52.354;13.614;2023-05-20T05:44:00;5;5;
76421;PMS5003;65254;52.354;13.614;2023-05-20T05:48:00;5;5;
76421;PMS5003;65254;52.354;13.614;2023-05-20T05:52:00;5;5;
76421;PMS5003;65254;52.354;13.614;2023-05-20T05:56:00;5;5;
76421;PMS5003;65254;52.354;13.614;2023-05-20T06:00:00;6;6;
76421;PMS5003;65254;52.354;13.614;2023-05-20T06:04:00;6;6;
76421;PMS5003;65254;52.354;13.614;2023-05-20T06:08:00;6;6;
76421;PMS5003;65254;52.354;13.614;2023-05-20T06:12:00;5;5;
76421;PMS5003;65254;52.354;13.614;2023-05-20T06:16:00;5;5;
76421;PMS5003;65254;52.354;13.614;2023-05-20T06:20:00;5;5;
76421;PMS5003;65254;52.354;13.614;2023-05-20T06:24:00;6;6;
76421;PMS5003;65254;52.354;13.614;2023-05-20T06:28:00;6;6;
76421;PMS5003;65254;52.354;13.614;2023-05-20T06:32:00;6;6;
76421;PMS5003;65254;52.354;13.614;2023-05-20T06:36:00;6;6;
76421;PMS5003;65254;52.354;13.614;2023-05-20T06:40:00;6;6;
76421;PMS5003;65254;52.354;13.614;2023-05-20T06:44:00;5;5;
76421;PMS5003;65254;52.354;13.614;2023-05-20T06:48:00;6;6;
76421;PMS5003;65254;52.354;13.614;2023-05-20T06:52:00;6;6;
76421;PMS5003;65254;52.354;13.614;2023-05-20T06:56:00;6;6;
76421;PMS5003;65254;52.354;13.614;2023-05-20T07:00:00;6;6;
76421;PMS5003;65254;52.354;13.614;2023-05-20T07:04:00;5;5;
76421;PMS5003;65254;52.354;13.614;2023-05-20T07:08:00;6;6;
76421;PMS5003;65254;52.354;13.614;2023-05-20T07:12:00;6;6;
76421;PMS5003;65254;52.354;13.614;2023-05-20T07:16:00;6;6;
76421;PMS5003;65254;52.354;13.614;2023-05-20T07:20:00;6;6;
76421;PMS5003;65254;52.354;13.614;2023-05-20T07:24:00;5;5;
76421;PMS5003;65254;52.354;13.614;2023-05-20T07:28:00;6;6;
76421;PMS5003;65254;52.354;13.614;2023-05-20T07:32:01;6;6;
76421;PMS5003;65254;52.354;13.614;2023-05-20T07:36:00;5;5;
76421;PMS5003;65254;52.354;13.614;2023-05-20T07:40:00;6;6;
76421;PMS5003;65254;52.354;13.614;2023-05-20T07:44:01;6;6;
76421;PMS5003;65254;52.354;13.614;2023-05-20T07:48:00;6;6;
76421;PMS5003;65254;52.354;13.614;2023-05-20T07:52:03;6;6;
76421;PMS5003;65254;52.354;13.614;2023-05-20T07:56:00;5;5;
76421;PMS5003;65254;52.354;13.614;2023-05-20T08:00:00;6;6;
76421;PMS5003;65254;52.354;13.614;2023-05-20T08:04:00;5;5;
76421;PMS5003;65254;52.354;13.614;2023-05-20T08:08:00;6;6;
76421;PMS5003;65254;52.354;13.614;2023-05-20T08:12:00;6;6;
76421;PMS5003;65254;52.354;13.614;2023-05-20T08:16:00;6;6;
76421;PMS5003;65254;52.354;13.614;2023-05-20T08:20:00;5;5;
76421;PMS5003;65254;52.354;13.614;2023-05-20T08:24:00;6;6;
76421;PMS5003;65254;52.354;13.614;2023-05-20T08:28:00;6;6;
76421;PMS5003;65254;52.354;13.614;2023-05-20T08:32:00;5;5;
76421;PMS5003;65254;52.354;13.614;2023-05-20T08:36:00;6;6;
76421;PMS5003;65254;52.354;13.614;2023-05-20T08:40:00;6;6;
76421;PMS5003;65254;52.354;13.614;2023-05-20T08:44:00;6;6;
76421;PMS5003;65254;52.354;13.614;2023-05-20T08:48:01;7;7;
76421;PMS5003;65254;52.354;13.614;2023-05-20T08:52:00;7;7;
76421;PMS5003;65254;52.354;13.614;2023-05-20T08:56:02;7;7;
76421;PMS5003;65254;52.354;13.614;2023-05-20T09:00:00;9;8;
76421;PMS5003;65254;52.354;13.614;2023-05-20T09:04:00;8;7;
76421;PMS5003;65254;52.354;13.614;2023-05-20T09:08:04;7;7;
76421;PMS5003;65254;52.354;13.614;2023-05-20T09:12:01;7;7;
76421;PMS5003;65254;52.354;13.614;2023-05-20T09:16:01;9;8;
76421;PMS5003;65254;52.354;13.614;2023-05-20T09:20:00;10;9;
76421;PMS5003;65254;52.354;13.614;2023-05-20T09:24:01;9;8;
76421;PMS5003;65254;52.354;13.614;2023-05-20T09:28:01;8;7;
76421;PMS5003;65254;52.354;13.614;2023-05-20T09:32:00;7;7;
76421;PMS5003;65254;52.354;13.614;2023-05-20T09:36:02;15;14;
76421;PMS5003;65254;52.354;13.614;2023-05-20T09:40:02;17;15;
76421;PMS5003;65254;52.354;13.614;2023-05-20T09:44:00;9;8;
76421;PMS5003;65254;52.354;13.614;2023-05-20T09:48:00;9;8;
76421;PMS5003;65254;52.354;13.614;2023-05-20T09:52:02;7;7;
76421;PMS5003;65254;52.354;13.614;2023-05-20T09:56:00;9;8;
76421;PMS5003;65254;52.354;13.614;2023-05-20T10:00:00;7;7;
76421;PMS5003;65254;52.354;13.614;2023-05-20T10:04:00;7;7;
76421;PMS5003;65254;52.354;13.614;2023-05-20T10:08:13;8;7;
76421;PMS5003;65254;52.354;13.614;2023-05-20T10:12:06;7;7;
76421;PMS5003;65254;52.354;13.614;2023-05-20T10:16:08;9;8;
76421;PMS5003;65254;52.354;13.614;2023-05-20T10:20:00;7;7;
76421;PMS5003;65254;52.354;13.614;2023-05-20T10:24:06;9;8;
76421;PMS5003;65254;52.354;13.614;2023-05-20T10:28:06;7;7;
76421;PMS5003;65254;52.354;13.614;2023-05-20T10:32:00;8;7;
76421;PMS5003;65254;52.354;13.614;2023-05-20T10:36:00;7;7;
76421;PMS5003;65254;52.354;13.614;2023-05-20T10:40:10;9;8;
76421;PMS5003;65254;52.354;13.614;2023-05-20T10:44:01;7;7;
76421;PMS5003;65254;52.354;13.614;2023-05-20T10:48:00;7;7;
76421;PMS5003;65254;52.354;13.614;2023-05-20T10:52:00;7;7;
76421;PMS5003;65254;52.354;13.614;2023-05-20T10:56:01;7;7;
76421;PMS5003;65254;52.354;13.614;2023-05-20T11:00:00;9;8;
76421;PMS5003;65254;52.354;13.614;2023-05-20T11:04:01;9;8;
76421;PMS5003;65254;52.354;13.614;2023-05-20T11:08:00;7;7;
76421;PMS5003;65254;52.354;13.614;2023-05-20T11:12:00;9;8;
76421;PMS5003;65254;52.354;13.614;2023-05-20T11:16:00;7;7;
76421;PMS5003;65254;52.354;13.614;2023-05-20T11:20:00;9;8;
76421;PMS5003;65254;52.354;13.614;2023-05-20T11:24:00;7;7;
76421;PMS5003;65254;52.354;13.614;2023-05-20T11:28:00;9;8;
76421;PMS5003;65254;52.354;13.614;2023-05-20T11:32:00;7;7;
76421;PMS5003;65254;52.354;13.614;2023-05-20T11:36:01;9;8;
76421;PMS5003;65254;52.354;13.614;2023-05-20T11:40:03;9;8;
76421;PMS5003;65254;52.354;13.614;2023-05-20T11:44:00;9;8;
76421;PMS5003;65254;52.354;13.614;2023-05-20T11:48:01;9;8;
76421;PMS5003;65254;52.354;13.614;2023-05-20T11:52:02;9;8;
76421;PMS5003;65254;52.354;13.614;2023-05-20T11:56:00;9;8;
76421;PMS5003;65254;52.354;13.614;2023-05-20T12:00:00;9;8;
76421;PMS5003;65254;52.354;13.614;2023-05-20T12:04:00;8;7;
76421;PMS5003;65254;52.354;13.614;2023-05-20T12:08:00;9;8;
76421;PMS5003;65254;52.354;13.614;2023-05-20T12:12:00;9;8;
76421;PMS5003;65254;52.354;13.614;2023-05-20T12:16:00;9;8;
76421;PMS5003;65254;52.354;13.614;2023-05-20T12:20:00;7;7;
76421;PMS5003;65254;52.354;13.614;2023-05-20T12:24:00;9;8;
76421;PMS5003;65254;52.354;13.614;2023-05-20T12:28:01;8;7;
76421;PMS5003;65254;52.354;13.614;2023-05-20T12:32:00;9;8;
76421;PMS5003;65254;52.354;13.614;2023-05-20T12:36:00;9;8;
76421;PMS5003;65254;52.354;13.614;2023-05-20T12:40:00;7;7;
76421;PMS5003;65254;52.354;13.614;2023-05-20T12:44:00;9;8;
76421;PMS5003;65254;52.354;13.614;2023-05-20T12:48:00;9;8;
76421;PMS5003;65254;52.354;13.614;2023-05-20T12:52:06;7;7;
76421;PMS5003;65254;52.354;13.614;2023-05-20T12:56:00;7;7;
76421;PMS5003;65254;52.354;13.614;2023-05-20T13:00:00;7;7;
76421;PMS5003;65254;52.354;13.614;2023-05-20T13:04:00;9;8;
76421;PMS5003;65254;52.354;13.614;2023-05-20T13:08:00;7;7;
76421;PMS5003;65254;52.354;13.614;2023-05-20T13:12:00;9;8;
76421;PMS5003;65254;52.354;13.614;2023-05-20T13:16:00;8;7;
76421;PMS5003;65254;52.354;13.614;2023-05-20T13:20:00;8;7;
76421;PMS5003;65254;52.354;13.614;2023-05-20T13:24:00;7;7;
76421;PMS5003;65254;52.354;13.614;2023-05-20T13:28:00;7;7;
76421;PMS5003;65254;52.354;13.614;2023-05-20T13:32:02;8;7;
76421;PMS5003;65254;52.354;13.614;2023-05-20T13:36:00;9;8;
76421;PMS5003;65254;52.354;13.614;2023-05-20T13:40:00;7;7;
76421;PMS5003;65254;52.354;13.614;2023-05-20T13:44:00;7;7;
76421;PMS5003;65254;52.354;13.614;2023-05-20T13:48:00;8;7;
76421;PMS5003;65254;52.354;13.614;2023-05-20T13:52:00;8;7;
76421;PMS5003;65254;52.354;13.614;2023-05-20T13:56:00;7;7;
76421;PMS5003;65254;52.354;13.614;2023-05-20T14:00:00;7;7;
76421;PMS5003;65254;52.354;13.614;2023-05-20T14:04:00;7;7;
76421;PMS5003;65254;52.354;13.614;2023-05-20T14:08:00;8;7;
76421;PMS5003;65254;52.354;13.614;2023-05-20T14:12:00;7;7;
76421;PMS5003;65254;52.354;13.614;2023-05-20T14:16:00;7;7;
76421;PMS5003;65254;52.354;13.614;2023-05-20T14:20:00;7;7;
76421;PMS5003;65254;52.354;13.614;2023-05-20T14:24:00;7;7;
76421;PMS5003;65254;52.354;13.614;2023-05-20T14:28:00;7;7;
76421;PMS5003;65254;52.354;13.614;2023-05-20T14:32:00;7;7;
76421;PMS5003;65254;52.354;13.614;2023-05-20T14:36:00;6;6;
76421;PMS5003;65254;52.354;13.614;2023-05-20T14:40:00;9;8;
76421;PMS5003;65254;52.354;13.614;2023-05-20T14:44:00;7;7;
76421;PMS5003;65254;52.354;13.614;2023-05-20T14:48:00;7;7;
76421;PMS5003;65254;52.354;13.614;2023-05-20T14:52:00;8;7;
76421;PMS5003;65254;52.354;13.614;2023-05-20T14:56:00;7;7;
76421;PMS5003;65254;52.354;13.614;2023-05-20T15:00:00;9;8;
76421;PMS5003;65254;52.354;13.614;2023-05-20T15:04:01;7;7;
76421;PMS5003;65254;52.354;13.614;2023-05-20T15:08:00;7;7;
76421;PMS5003;65254;52.354;13.614;2023-05-20T15:12:00;7;7;
76421;PMS5003;65254;52.354;13.614;2023-05-20T15:16:00;9;8;
76421;PMS5003;65254;52.354;13.614;2023-05-20T15:20:00;7;7;
76421;PMS5003;65254;52.354;13.614;2023-05-20T15:24:00;7;7;
76421;PMS5003;65254;52.354;13.614;2023-05-20T15:28:00;6;6;
76421;PMS5003;65254;52.354;13.614;2023-05-20T15:32:00;7;7;
76421;PMS5003;65254;52.354;13.614;2023-05-20T15:36:00;7;7;
76421;PMS5003;65254;52.354;13.614;2023-05-20T15:40:00;9;8;
76421;PMS5003;65254;52.354;13.614;2023-05-20T15:44:00;7;7;
76421;PMS5003;65254;52.354;13.614;2023-05-20T15:48:00;7;7;
76421;PMS5003;65254;52.354;13.614;2023-05-20T15:52:04;7;7;
76421;PMS5003;65254;52.354;13.614;2023-05-20T15:56:00;7;7;
76421;PMS5003;65254;52.354;13.614;2023-05-20T16:00:01;7;7;
76421;PMS5003;65254;52.354;13.614;2023-05-20T16:04:00;8;7;
76421;PMS5003;65254;52.354;13.614;2023-05-20T16:08:00;7;7;
76421;PMS5003;65254;52.354;13.614;2023-05-20T16:12:00;7;7;
76421;PMS5003;65254;52.354;13.614;2023-05-20T16:16:00;7;7;
76421;PMS5003;65254;52.354;13.614;2023-05-20T16:20:01;7;7;
76421;PMS5003;65254;52.354;13.614;2023-05-20T16:24:00;7;7;
76421;PMS5003;65254;52.354;13.614;2023-05-20T16:28:00;9;8;
76421;PMS5003;65254;52.354;13.614;2023-05-20T16:32:00;7;7;
76421;PMS5003;65254;52.354;13.614;2023-05-20T16:36:00;7;7;
76421;PMS5003;65254;52.354;13.614;2023-05-20T16:40:00;7;7;
76421;PMS5003;65254;52.354;13.614;2023-05-20T16:44:00;8;7;
76421;PMS5003;65254;52.354;13.614;2023-05-20T16:48:00;7;7;
76421;PMS5003;65254;52.354;13.614;2023-05-20T16:52:00;8;7;
76421;PMS5003;65254;52.354;13.614;2023-05-20T16:56:00;7;7;
76421;PMS5003;65254;52.354;13.614;2023-05-20T17:00:00;7;7;
76421;PMS5003;65254;52.354;13.614;2023-05-20T17:04:00;7;7;
76421;PMS5003;65254;52.354;13.614;2023-05-20T17:08:00;7;7;
76421;PMS5003;65254;52.354;13.614;2023-05-20T17:12:00;9;8;
76421;PMS5003;65254;52.354;13.614;2023-05-20T17:16:00;9;8;
76421;PMS5003;65254;52.354;13.614;2023-05-20T17:20:00;9;8;
76421;PMS5003;65254;52.354;13.614;2023-05-20T17:24:00;9;8;
76421;PMS5003;65254;52.354;13.614;2023-05-20T17:28:00;10;9;
76421;PMS5003;65254;52.354;13.614;2023-05-20T17:32:00;9;8;
76421;PMS5003;65254;52.354;13.614;2023-05-20T17:36:00;9;8;
76421;PMS5003;65254;52.354;13.614;2023-05-20T17:40:00;9;8;
76421;PMS5003;65254;52.354;13.614;2023-05-20T17:44:00;9;8;
76421;PMS5003;65254;52.354;13.614;2023-05-20T17:48:00;10;9;
76421;PMS5003;65254;52.354;13.614;2023-05-20T17:52:00;9;8;
76421;PMS5003;65254;52.354;13.614;2023-05-20T17:56:00;10;9;
76421;PMS5003;65254;52.354;13.614;2023-05-20T18:00:00;7;7;
76421;PMS5003;65254;52.354;13.614;2023-05-20T18:04:00;10;9;
76421;PMS5003;65254;52.354;13.614;2023-05-20T18:08:00;9;8;
76421;PMS5003;65254;52.354;13.614;2023-05-20T18:12:00;9;8;
76421;PMS5003;65254;52.354;13.614;2023-05-20T18:16:00;9;8;
76421;PMS5003;65254;52.354;13.614;2023-05-20T18:20:00;9;8;
76421;PMS5003;65254;52.354;13.614;2023-05-20T18:24:00;9;8;
76421;PMS5003;65254;52.354;13.614;2023-05-20T18:28:00;9;8;
76421;PMS5003;65254;52.354;13.614;2023-05-20T18:32:00;9;8;
76421;PMS5003;65254;52.354;13.614;2023-05-20T18:36:00;9;8;
76421;PMS5003;65254;52.354;13.614;2023-05-20T18:40:00;9;8;
76421;PMS5003;65254;52.354;13.614;2023-05-20T18:44:00;7;7;
76421;PMS5003;65254;52.354;13.614;2023-05-20T18:48:00;9;8;
76421;PMS5003;65254;52.354;13.614;2023-05-20T18:52:00;9;8;
76421;PMS5003;65254;52.354;13.614;2023-05-20T18:56:00;9;8;
76421;PMS5003;65254;52.354;13.614;2023-05-20T19:00:00;9;8;
76421;PMS5003;65254;52.354;13.614;2023-05-20T19:04:00;9;8;
76421;PMS5003;65254;52.354;13.614;2023-05-20T19:08:00;9;8;
76421;PMS5003;65254;52.354;13.614;2023-05-20T19:12:00;7;7;
76421;PMS5003;65254;52.354;13.614;2023-05-20T19:16:00;9;8;
76421;PMS5003;65254;52.354;13.614;2023-05-20T19:20:00;8;7;
76421;PMS5003;65254;52.354;13.614;2023-05-20T19:24:00;7;7;
76421;PMS5003;65254;52.354;13.614;2023-05-20T19:28:00;9;8;
76421;PMS5003;65254;52.354;13.614;2023-05-20T19:32:00;9;8;
76421;PMS5003;65254;52.354;13.614;2023-05-20T19:36:00;9;8;
76421;PMS5003;65254;52.354;13.614;2023-05-20T19:40:00;9;8;
76421;PMS5003;65254;52.354;13.614;2023-05-20T19:44:00;10;9;
76421;PMS5003;65254;52.354;13.614;2023-05-20T19:48:00;9;8;
76421;PMS5003;65254;52.354;13.614;2023-05-20T19:52:00;9;8;
76421;PMS5003;65254;52.354;13.614;2023-05-20T19:56:00;9;8;
76421;PMS5003;65254;52.354;13.614;2023-05-20T20:00:00;10;9;
76421;PMS5003;65254;52.354;13.614;2023-05-20T20:04:00;10;9;
76421;PMS5003;65254;52.354;13.614;2023-05-20T20:08:00;9;8;
76421;PMS5003;65254;52.354;13.614;2023-05-20T20:12:00;9;8;
76421;PMS5003;65254;52.354;13.614;2023-05-20T20:16:00;9;8;
76421;PMS5003;65254;52.354;13.614;2023-05-20T20:20:00;10;9;
76421;PMS5003;65254;52.354;13.614;2023-05-20T20:24:00;11;10;
76421;PMS5003;65254;52.354;13.614;2023-05-20T20:28:00;11;10;
76421;PMS5003;65254;52.354;13.614;2023-05-20T20:32:00;9;8;
76421;PMS5003;65254;52.354;13.614;2023-05-20T20:36:00;10;9;
76421;PMS5003;65254;52.354;13.614;2023-05-20T20:40:00;12;11;
76421;PMS5003;65254;52.354;13.614;2023-05-20T20:44:00;11;10;
76421;PMS5003;65254;52.354;13.614;2023-05-20T20:48:00;12;11;
76421;PMS5003;65254;52.354;13.614;2023-05-20T20:52:00;11;10;
76421;PMS5003;65254;52.354;13.614;2023-05-20T20:56:00;11;10;
76421;PMS5003;65254;52.354;13.614;2023-05-20T21:00:00;11;10;
76421;PMS5003;65254;52.354;13.614;2023-05-20T21:04:01;10;9;
76421;PMS5003;65254;52.354;13.614;2023-05-20T21:08:00;10;9;
76421;PMS5003;65254;52.354;13.614;2023-05-20T21:12:00;10;9;
76421;PMS5003;65254;52.354;13.614;2023-05-20T21:16:00;10;9;
76421;PMS5003;65254;52.354;13.614;2023-05-20T21:20:00;11;10;
76421;PMS5003;65254;52.354;13.614;2023-05-20T21:24:00;10;9;
76421;PMS5003;65254;52.354;13.614;2023-05-20T21:28:00;11;10;
76421;PMS5003;65254;52.354;13.614;2023-05-20T21:32:00;11;10;
76421;PMS5003;65254;52.354;13.614;2023-05-20T21:36:00;11;10;
76421;PMS5003;65254;52.354;13.614;2023-05-20T21:40:00;10;9;
76421;PMS5003;65254;52.354;13.614;2023-05-20T21:44:00;10;9;
76421;PMS5003;65254;52.354;13.614;2023-05-20T21:48:00;11;10;
76421;PMS5003;65254;52.354;13.614;2023-05-20T21:52:00;11;10;
76421;PMS5003;65254;52.354;13.614;2023-05-20T21:56:00;12;11;
76421;PMS5003;65254;52.354;13.614;2023-05-20T22:00:00;12;11;
76421;PMS5003;65254;52.354;13.614;2023-05-20T22:04:00;12;11;
76421;PMS5003;65254;52.354;13.614;2023-05-20T22:08:00;12;11;
76421;PMS5003;65254;52.354;13.614;2023-05-20T22:12:00;12;11;
76421;PMS5003;65254;52.354;13.614;2023-05-20T22:16:01;12;11;
76421;PMS5003;65254;52.354;13.614;2023-05-20T22:20:01;12;11;
76421;PMS5003;65254;52.354;13.614;2023-05-20T22:24:00;13;12;
76421;PMS5003;65254;52.354;13.614;2023-05-20T22:28:00;12;11;
76421;PMS5003;65254;52.354;13.614;2023-05-20T22:32:00;13;12;
76421;PMS5003;65254;52.354;13.614;2023-05-20T22:36:00;13;12;
76421;PMS5003;65254;52.354;13.614;2023-05-20T22:40:00;13;12;
76421;PMS5003;65254;52.354;13.614;2023-05-20T22:44:00;14;13;
76421;PMS5003;65254;52.354;13.614;2023-05-20T22:48:00;13;12;
76421;PMS5003;65254;52.354;13.614;2023-05-20T22:52:00;14;13;
76421;PMS5003;65254;52.354;13.614;2023-05-20T22:56:00;14;13;
76421;PMS5003;65254;52.354;13.614;2023-05-20T23:00:00;14;13;
76421;PMS5003;65254;52.354;13.614;2023-05-20T23:04:00;14;13;
76421;PMS5003;65254;52.354;13.614;2023-05-20T23:08:00;14;13;
76421;PMS5003;65254;52.354;13.614;2023-05-20T23:12:00;15;14;
76421;PMS5003;65254;52.354;13.614;2023-05-20T23:16:00;15;14;
76421;PMS5003;65254;52.354;13.614;2023-05-20T23:20:00;15;14;
76421;PMS5003;65254;52.354;13.614;2023-05-20T23:24:00;15;14;
76421;PMS5003;65254;52.354;13.614;2023-05-20T23:28:00;15;14;
76421;PMS5003;65254;52.354;13.614;2023-05-20T23:32:00;14;13;
76421;PMS5003;65254;52.354;13.614;2023-05-20T23:36:00;17;15;
76421;PMS5003;65254;52.354;13.614;2023-05-20T23:40:00;16;14;
76421;PMS5003;65254;52.354;13.614;2023-05-20T23:44:00;15;14;
76421;PMS5003;65254;52.354;13.614;2023-05-20T23:48:00;16;14;
76421;PMS5003;65254;52.354;13.614;2023-05-20T23:52:00;17;15;
76421;PMS5003;65254;52.354;13.614;2023-05-20T23:56:00;17;15;
